Terminal Aerodrome Forecast
Issued by NWS

Home | Current Version | Previous Version | Text Only | Print | Product List | Glossary On
Versions: 1 2 3 4 5 6 7 8 9 10 11 12 13 14 15 16 17 18 19 20 21
000
FTUS43 KICT 160521
TAFRSL
TAF
KRSL 160521Z 1606/1706 34015G21KT P6SM BKN025
     FM160900 34015KT P6SM SCT035
     FM162000 01008KT P6SM BKN250
     FM162300 07005KT P6SM BKN250=

USA.gov is the U.S. government's official web portal to all federal, state and local government web resources and services.